Time;durP1;ratioP1;P1;durP2;ratioP2;P2;SDS_P1;SDS_P2;PMS_P1;PMS_P2;Temp;Humidity;BMP_temperature;BMP_pressure;BME280_temperature;BME280_humidity;BME280_pressure;Samples;Min_cycle;Max_cycle;Signal;HPM_P1;HPM_P2
2023/03/11 00:00:30;;;;;;;9.60;6.80;;;;;;;5.13;94.50;96700.80;437507;1251;142072;-71
2023/03/11 00:10:39;;;;;;;6.90;4.60;;;;;;;4.94;94.62;96693.22;437143;1251;141378;-72
2023/03/11 00:20:47;;;;;;;6.90;4.80;;;;;;;4.71;94.89;96678.07;436376;1254;140819;-71
2023/03/11 00:30:53;;;;;;;7.40;5.00;;;;;;;4.46;95.40;96669.58;437425;1251;141908;-72
2023/03/11 00:41:00;;;;;;;5.70;3.50;;;;;;;4.39;96.32;96662.61;436558;1254;144151;-72
2023/03/11 00:51:11;;;;;;;10.40;5.20;;;;;;;4.54;96.62;96646.75;437542;1251;142066;-72
2023/03/11 01:01:20;;;;;;;5.40;3.40;;;;;;;4.74;96.74;96635.30;437755;1255;144801;-73
2023/03/11 01:11:26;;;;;;;3.30;2.60;;;;;;;4.92;96.89;96627.14;436202;1253;142505;-72
2023/03/11 01:21:32;;;;;;;3.50;1.80;;;;;;;5.10;96.89;96621.75;437070;1251;143230;-72
2023/03/11 01:31:39;;;;;;;2.50;1.90;;;;;;;5.26;96.80;96623.83;437116;1251;141381;-71
2023/03/11 01:41:45;;;;;;;4.40;2.50;;;;;;;5.45;96.84;96620.88;436504;1256;141724;-71
2023/03/11 01:51:54;;;;;;;4.10;2.20;;;;;;;5.53;96.82;96609.25;436828;1251;140750;-73
2023/03/11 02:02:08;;;;;;;2.10;1.80;;;;;;;5.55;96.91;96605.26;436183;1256;141567;-72
2023/03/11 02:12:15;;;;;;;2.70;1.80;;;;;;;5.61;97.23;96602.70;436918;1256;141977;-72
2023/03/11 02:22:22;;;;;;;4.00;2.50;;;;;;;5.70;97.34;96601.63;438853;1254;141113;-71
2023/03/11 02:32:28;;;;;;;2.40;2.00;;;;;;;5.76;97.50;96592.08;436442;1256;142490;-71
2023/03/11 02:42:34;;;;;;;3.40;2.30;;;;;;;5.77;97.72;96593.71;437689;1254;140944;-71
2023/03/11 02:52:40;;;;;;;2.80;2.50;;;;;;;5.80;97.86;96592.44;438096;1253;141042;-70
2023/03/11 03:02:50;;;;;;;4.10;1.90;;;;;;;5.81;97.93;96594.41;436280;1251;141523;-71
2023/03/11 03:12:56;;;;;;;1.90;1.30;;;;;;;5.81;98.14;96592.90;437248;1253;140997;-71
2023/03/11 03:23:02;;;;;;;2.70;2.50;;;;;;;5.82;98.40;96596.40;436795;1256;141779;-70
2023/03/11 03:33:08;;;;;;;3.40;2.90;;;;;;;5.85;98.83;96594.56;436731;1254;141922;-71
2023/03/11 03:43:14;;;;;;;3.00;2.20;;;;;;;5.84;99.19;96598.62;437675;1255;141383;-71
2023/03/11 03:53:20;;;;;;;3.70;3.00;;;;;;;5.76;99.89;96591.20;436481;1250;142349;-71
2023/03/11 04:03:27;;;;;;;3.60;3.30;;;;;;;5.64;100.00;96596.98;437298;1256;141531;-70
2023/03/11 04:13:32;;;;;;;3.80;3.50;;;;;;;5.54;100.00;96598.40;437049;1254;141703;-70
2023/03/11 04:23:38;;;;;;;4.30;3.90;;;;;;;5.48;100.00;96597.74;436386;1251;141679;-71
2023/03/11 04:33:44;;;;;;;4.50;4.20;;;;;;;5.43;100.00;96600.13;437012;1254;142005;-71
2023/03/11 04:43:49;;;;;;;3.40;3.10;;;;;;;5.34;100.00;96605.80;436822;1251;142500;-73
2023/03/11 04:53:55;;;;;;;3.70;3.40;;;;;;;5.22;100.00;96608.88;437004;1251;196978;-73
2023/03/11 05:04:01;;;;;;;3.40;3.10;;;;;;;5.12;100.00;96611.38;437684;1254;153067;-73
2023/03/11 05:14:07;;;;;;;3.50;3.20;;;;;;;5.04;100.00;96618.88;437089;1252;141926;-73
2023/03/11 05:24:13;;;;;;;1.50;1.40;;;;;;;4.95;100.00;96630.18;437383;1251;141225;-72
2023/03/11 05:34:19;;;;;;;1.00;1.00;;;;;;;4.76;100.00;96634.64;437966;1251;143872;-72
2023/03/11 05:44:24;;;;;;;1.40;1.30;;;;;;;4.49;100.00;96652.05;437511;1253;141966;-74
2023/03/11 05:54:30;;;;;;;1.00;1.00;;;;;;;4.28;100.00;96661.73;437486;1251;145118;-72
2023/03/11 06:04:36;;;;;;;1.30;1.00;;;;;;;4.06;100.00;96667.81;437922;1254;141929;-73
2023/03/11 06:14:42;;;;;;;1.00;0.90;;;;;;;3.88;100.00;96676.17;436509;1254;142176;-71
2023/03/11 06:24:48;;;;;;;0.30;0.30;;;;;;;3.75;100.00;96693.29;436978;1251;141226;-72
2023/03/11 06:34:54;;;;;;;1.00;0.60;;;;;;;3.56;100.00;96707.64;436582;1251;143911;-72
2023/03/11 06:45:02;;;;;;;0.60;0.60;;;;;;;3.59;100.00;96714.14;436830;1251;142470;-73
2023/03/11 06:55:09;;;;;;;2.20;1.40;;;;;;;3.65;100.00;96726.85;436930;1251;142095;-73
2023/03/11 07:05:16;;;;;;;0.40;0.40;;;;;;;3.62;100.00;96750.31;436189;1251;143711;-71
2023/03/11 07:15:21;;;;;;;;;;;;;;;3.26;100.00;96775.10;437045;1250;143215;-73
2023/03/11 07:25:27;;;;;;;1.70;1.60;;;;;;;2.89;100.00;96793.54;437104;1251;128109;-72
2023/03/11 07:35:35;;;;;;;2.20;2.00;;;;;;;2.84;100.00;96805.95;436706;1254;141345;-72
2023/03/11 07:45:40;;;;;;;2.10;2.00;;;;;;;2.86;99.95;96818.27;437044;1254;142220;-72
2023/03/11 07:55:46;;;;;;;1.60;1.50;;;;;;;2.90;99.96;96826.44;437110;1250;141505;-74
2023/03/11 08:05:52;;;;;;;1.60;0.90;;;;;;;2.89;99.61;96850.15;436145;1250;141363;-72
2023/03/11 08:15:58;;;;;;;0.90;0.90;;;;;;;2.55;99.47;96860.86;437240;1250;142690;-72
2023/03/11 08:26:06;;;;;;;1.50;1.40;;;;;;;2.43;99.59;96878.83;437685;1251;140849;-72
2023/03/11 08:36:12;;;;;;;2.00;1.70;;;;;;;2.27;99.86;96891.92;437346;1251;141214;-72
2023/03/11 08:46:22;;;;;;;2.20;2.00;;;;;;;2.14;99.80;96905.12;436905;1251;141726;-72
2023/03/11 08:56:29;;;;;;;3.90;3.60;;;;;;;2.00;99.85;96925.80;436771;1250;141176;-71
2023/03/11 09:06:35;;;;;;;4.50;4.10;;;;;;;1.82;99.82;96940.16;437394;1250;141732;-71
2023/03/11 09:16:41;;;;;;;5.40;4.90;;;;;;;1.75;99.96;96963.04;437032;1251;142127;-73
2023/03/11 09:26:46;;;;;;;4.70;3.90;;;;;;;1.26;99.88;97000.67;437742;1250;141520;-71
2023/03/11 09:36:52;;;;;;;4.10;3.00;;;;;;;0.96;99.62;97038.52;437608;1251;142566;-71
2023/03/11 09:47:35;;;;;;;2.80;2.60;;;;;;;0.60;99.35;97060.28;436697;1250;141863;-72
2023/03/11 09:57:41;;;;;;;2.70;2.50;;;;;;;0.57;99.68;97092.64;442741;1250;141548;-72
2023/03/11 10:07:53;;;;;;;4.80;4.10;;;;;;;0.56;99.51;97130.42;437223;1250;143433;-71
2023/03/11 10:18:23;;;;;;;3.60;3.30;;;;;;;0.49;99.79;97159.96;439000;1250;151859;-72
2023/03/11 10:28:36;;;;;;;3.60;3.00;;;;;;;0.55;99.46;97194.18;437154;1250;141111;-72
2023/03/11 10:38:46;;;;;;;4.90;3.40;;;;;;;0.49;99.00;97220.41;436738;1251;142089;-73
2023/03/11 10:48:52;;;;;;;4.40;3.80;;;;;;;0.33;99.07;97254.54;437783;1250;142129;-72
2023/03/11 10:58:58;;;;;;;4.00;3.40;;;;;;;0.19;99.41;97277.73;436656;1254;142098;-73
2023/03/11 11:09:20;;;;;;;3.10;2.80;;;;;;;0.84;99.18;97303.66;438118;1250;143347;-74
2023/03/11 11:19:29;;;;;;;4.10;3.70;;;;;;;0.52;98.31;97339.02;437551;1250;434143;-75
2023/03/11 11:29:35;;;;;;;3.50;3.00;;;;;;;0.63;98.53;97352.63;436321;1254;142744;-73
2023/03/11 11:39:50;;;;;;;2.80;2.40;;;;;;;0.15;97.84;97393.44;437010;1250;141658;-74
2023/03/11 11:50:00;;;;;;;2.80;2.50;;;;;;;0.10;98.14;97418.50;436092;1250;140648;-73
2023/03/11 12:00:20;;;;;;;2.50;2.20;;;;;;;0.25;97.79;97439.54;437194;1251;141171;-73
2023/03/11 12:10:31;;;;;;;3.30;2.60;;;;;;;0.01;97.73;97455.66;437332;1253;141877;-75
2023/03/11 12:20:42;;;;;;;3.00;2.80;;;;;;;-0.28;97.82;97481.27;436322;1250;142727;-75
2023/03/11 12:30:52;;;;;;;3.70;3.20;;;;;;;-0.29;98.23;97505.02;437471;1254;181227;-74
2023/03/11 12:41:06;;;;;;;3.10;2.80;;;;;;;-0.40;97.76;97541.17;437013;1251;142053;-74
2023/03/11 13:01:53;;;;;;;4.90;3.40;;;;;;;-0.52;97.34;97605.25;424306;1295;599668;-73
2023/03/11 13:12:00;;;;;;;4.20;3.40;;;;;;;-0.74;96.30;97632.96;433132;1264;180919;-74
2023/03/11 13:22:05;;;;;;;;;;;;;;;-0.66;95.80;97659.90;433621;1264;140097;-74
2023/03/11 13:32:47;;;;;;;8.30;2.70;;;;;;;-0.70;95.09;97687.23;433515;1265;128599;-73
2023/03/11 13:42:57;;;;;;;5.20;4.10;;;;;;;-0.79;94.70;97712.40;433090;1266;141266;-74
2023/03/11 13:53:07;;;;;;;3.20;2.40;;;;;;;-0.73;94.93;97744.09;432593;1266;142537;-73
2023/03/11 14:03:17;;;;;;;5.80;3.00;;;;;;;-0.61;94.12;97766.05;433620;1267;141225;-73
2023/03/11 14:13:25;;;;;;;6.10;4.00;;;;;;;-0.67;94.48;97793.98;433582;1265;140635;-74
2023/03/11 14:23:36;;;;;;;4.20;3.10;;;;;;;-0.64;94.31;97826.88;432397;1265;140977;-72
2023/03/11 14:33:41;;;;;;;8.80;3.70;;;;;;;-0.65;94.20;97849.41;431595;1268;146398;-67
2023/03/11 14:43:51;;;;;;;5.80;3.10;;;;;;;-0.73;94.45;97867.32;430847;1266;143345;-67
2023/03/11 14:54:06;;;;;;;5.10;3.20;;;;;;;-0.78;94.40;97881.45;430760;1267;141543;-66
2023/03/11 15:04:14;;;;;;;7.10;3.90;;;;;;;-0.80;94.59;97909.55;432468;1264;142942;-65
2023/03/11 15:14:24;;;;;;;5.70;4.00;;;;;;;-0.92;95.46;97936.52;432675;1261;140897;-69
2023/03/11 15:24:32;;;;;;;3.90;2.70;;;;;;;-0.89;96.57;97957.52;434971;1262;140783;-70
2023/03/11 15:34:38;;;;;;;4.10;2.60;;;;;;;-0.61;95.49;97972.11;432475;1262;140815;-70
2023/03/11 15:44:48;;;;;;;1.90;1.50;;;;;;;-0.29;94.13;97987.38;432394;1262;140760;-68
2023/03/11 15:54:54;;;;;;;3.60;2.00;;;;;;;-0.29;92.61;97997.20;436475;1260;141813;-70
2023/03/11 16:05:00;;;;;;;3.90;2.30;;;;;;;-0.55;91.76;98024.13;430988;1264;140919;-69
2023/03/11 16:15:16;;;;;;;3.00;1.60;;;;;;;-0.67;90.97;98051.42;434513;1262;141708;-69
2023/03/11 16:25:25;;;;;;;2.70;1.90;;;;;;;-0.75;90.64;98074.98;432075;1261;142609;-69
2023/03/11 16:35:32;;;;;;;3.20;1.70;;;;;;;-0.77;89.52;98102.02;433604;1262;141764;-68
2023/03/11 16:45:37;;;;;;;5.50;2.30;;;;;;;-0.79;89.99;98123.63;434556;1257;141815;-70
2023/03/11 16:55:45;;;;;;;4.40;2.40;;;;;;;-0.84;89.57;98147.01;435726;1253;146489;-69
2023/03/11 17:05:59;;;;;;;2.30;1.70;;;;;;;-0.93;88.70;98177.94;433407;1257;146709;-68
2023/03/11 17:16:07;;;;;;;3.50;1.90;;;;;;;-1.08;87.91;98201.87;434413;1254;140908;-68
2023/03/11 17:26:14;;;;;;;4.60;1.70;;;;;;;-1.28;87.79;98215.00;438640;1253;141929;-68
2023/03/11 17:36:20;;;;;;;2.70;1.70;;;;;;;-1.47;88.01;98227.21;433314;1256;145894;-69
2023/03/11 17:46:24;;;;;;;;;;;;;;;-1.44;88.00;98247.87;434932;1255;141937;-68
2023/03/11 17:56:30;;;;;;;3.60;2.40;;;;;;;-1.29;87.72;98269.30;434806;1257;127731;-68
2023/03/11 18:06:37;;;;;;;4.70;2.90;;;;;;;-1.38;86.91;98287.31;434936;1253;140713;-68
2023/03/11 18:16:46;;;;;;;2.70;1.90;;;;;;;-1.65;86.81;98313.31;435323;1257;140789;-68
2023/03/11 18:26:51;;;;;;;3.80;1.70;;;;;;;-1.97;87.38;98337.37;433045;1253;140461;-68
2023/03/11 18:36:57;;;;;;;3.40;2.10;;;;;;;-2.10;87.83;98355.27;434719;1253;139649;-69
2023/03/11 18:47:03;;;;;;;5.90;3.20;;;;;;;-2.10;88.30;98370.39;435882;1255;141978;-67
2023/03/11 18:57:09;;;;;;;4.30;3.10;;;;;;;-2.05;88.99;98384.80;434727;1257;140657;-69
2023/03/11 19:07:14;;;;;;;6.20;3.50;;;;;;;-2.24;88.90;98393.95;433081;1257;140900;-69
2023/03/11 19:17:20;;;;;;;3.80;2.60;;;;;;;-2.48;89.50;98406.66;432766;1257;140576;-69
2023/03/11 19:27:26;;;;;;;4.50;2.60;;;;;;;-2.64;90.07;98425.82;433637;1253;140113;-68
2023/03/11 19:37:32;;;;;;;4.20;2.70;;;;;;;-2.52;90.71;98435.42;434401;1257;141917;-68
2023/03/11 19:47:38;;;;;;;10.40;4.30;;;;;;;-2.23;90.91;98445.87;433901;1255;141313;-67
2023/03/11 19:57:43;;;;;;;;;;;;;;;-1.97;90.71;98459.30;434686;1255;141481;-71
2023/03/11 20:07:48;;;;;;;7.90;4.50;;;;;;;-1.82;91.01;98467.27;434697;1257;128507;-68
2023/03/11 20:17:54;;;;;;;5.30;3.60;;;;;;;-1.78;90.64;98478.28;432976;1258;211472;-68
2023/03/11 20:28:01;;;;;;;4.60;3.50;;;;;;;-1.70;90.89;98488.84;433114;1257;142142;-68
2023/03/11 20:38:08;;;;;;;5.60;3.90;;;;;;;-1.67;91.00;98498.90;445894;1254;141253;-69
2023/03/11 20:48:13;;;;;;;5.40;3.80;;;;;;;-1.58;90.99;98505.13;441638;1253;147007;-68
2023/03/11 20:58:19;;;;;;;5.10;3.70;;;;;;;-1.49;91.49;98505.18;450082;1253;141695;-68
2023/03/11 21:08:25;;;;;;;5.50;3.90;;;;;;;-1.34;91.55;98513.96;449841;1253;142872;-68
2023/03/11 21:18:31;;;;;;;7.60;4.80;;;;;;;-1.25;90.96;98517.96;442758;1252;140505;-68
2023/03/11 21:28:38;;;;;;;7.40;4.30;;;;;;;-1.30;91.14;98528.44;438165;1256;141543;-68
2023/03/11 21:38:44;;;;;;;5.20;4.80;;;;;;;-1.35;91.21;98532.38;441871;1254;144301;-68
2023/03/11 21:48:51;;;;;;;7.90;5.00;;;;;;;-1.44;90.85;98539.00;441560;1254;141362;-68
2023/03/11 21:58:57;;;;;;;9.00;5.30;;;;;;;-1.77;91.14;98542.42;432575;1256;142365;-68
2023/03/11 22:09:02;;;;;;;;;;;;;;;-2.03;91.72;98553.84;438532;1253;140874;-68
2023/03/11 22:19:10;;;;;;;9.60;6.10;;;;;;;-2.05;91.60;98564.52;441690;1252;128657;-69
2023/03/11 22:29:15;;;;;;;9.20;6.20;;;;;;;-2.21;91.62;98569.27;434701;1255;140896;-69
2023/03/11 22:39:21;;;;;;;8.00;6.10;;;;;;;-2.44;92.14;98574.69;434766;1258;142948;-68
2023/03/11 22:49:27;;;;;;;9.40;6.10;;;;;;;-2.62;92.43;98582.04;434306;1257;140390;-69
2023/03/11 22:59:32;;;;;;;9.60;7.50;;;;;;;-2.63;93.20;98575.19;435348;1254;141156;-69
2023/03/11 23:09:38;;;;;;;8.40;6.40;;;;;;;-2.63;93.17;98576.73;435423;1254;141778;-69
2023/03/11 23:19:44;;;;;;;10.00;6.50;;;;;;;-2.82;93.60;98574.31;435893;1257;141889;-67
2023/03/11 23:29:49;;;;;;;;;;;;;;;-2.99;94.04;98573.70;432926;1257;141280;-67
2023/03/11 23:39:55;;;;;;;10.40;7.90;;;;;;;-3.14;94.42;98576.82;434128;1258;127265;-67
2023/03/11 23:49:59;;;;;;;;;;;;;;;-3.33;94.60;98583.94;433014;1256;142166;-67
